sensor_id;sensor_type;location;lat;lon;timestamp;temperature;humidity
47658;DHT22;33958;48.404;10.598;2022-07-29T00:02:25;17.90;99.90
47658;DHT22;33958;48.404;10.598;2022-07-29T00:04:52;17.90;99.90
47658;DHT22;33958;48.404;10.598;2022-07-29T00:07:20;17.90;99.90
47658;DHT22;33958;48.404;10.598;2022-07-29T00:09:46;17.80;99.90
47658;DHT22;33958;48.404;10.598;2022-07-29T00:12:20;17.70;99.90
47658;DHT22;33958;48.404;10.598;2022-07-29T00:14:55;18.00;99.90
47658;DHT22;33958;48.404;10.598;2022-07-29T00:17:23;17.90;99.90
47658;DHT22;33958;48.404;10.598;2022-07-29T00:19:50;17.80;99.90
47658;DHT22;33958;48.404;10.598;2022-07-29T00:22:17;17.80;99.90
47658;DHT22;33958;48.404;10.598;2022-07-29T00:24:44;17.80;99.90
47658;DHT22;33958;48.404;10.598;2022-07-29T00:27:11;17.80;99.90
47658;DHT22;33958;48.404;10.598;2022-07-29T00:29:38;17.90;99.90
47658;DHT22;33958;48.404;10.598;2022-07-29T00:32:05;17.90;99.90
47658;DHT22;33958;48.404;10.598;2022-07-29T00:34:32;17.70;99.90
47658;DHT22;33958;48.404;10.598;2022-07-29T00:37:17;17.70;99.90
47658;DHT22;33958;48.404;10.598;2022-07-29T00:39:44;17.50;99.90
47658;DHT22;33958;48.404;10.598;2022-07-29T00:42:12;17.50;99.90
47658;DHT22;33958;48.404;10.598;2022-07-29T00:44:40;17.60;99.90
47658;DHT22;33958;48.404;10.598;2022-07-29T00:47:09;17.40;99.90
47658;DHT22;33958;48.404;10.598;2022-07-29T00:49:38;17.40;99.90
47658;DHT22;33958;48.404;10.598;2022-07-29T00:52:07;17.20;99.90
47658;DHT22;33958;48.404;10.598;2022-07-29T00:54:35;17.20;99.90
47658;DHT22;33958;48.404;10.598;2022-07-29T00:57:10;17.20;99.90
47658;DHT22;33958;48.404;10.598;2022-07-29T00:59:37;17.20;99.90
47658;DHT22;33958;48.404;10.598;2022-07-29T01:02:04;17.20;99.90
47658;DHT22;33958;48.404;10.598;2022-07-29T01:04:31;17.20;99.90
47658;DHT22;33958;48.404;10.598;2022-07-29T01:07:02;17.20;99.90
47658;DHT22;33958;48.404;10.598;2022-07-29T01:09:31;17.20;99.90
47658;DHT22;33958;48.404;10.598;2022-07-29T01:12:15;17.10;99.90
47658;DHT22;33958;48.404;10.598;2022-07-29T01:14:43;17.20;99.90
47658;DHT22;33958;48.404;10.598;2022-07-29T01:17:17;17.20;99.90
47658;DHT22;33958;48.404;10.598;2022-07-29T01:28:05;17.20;99.90
47658;DHT22;33958;48.404;10.598;2022-07-29T01:30:38;17.30;99.90
47658;DHT22;33958;48.404;10.598;2022-07-29T01:33:13;17.10;99.90
47658;DHT22;33958;48.404;10.598;2022-07-29T01:36:03;17.20;99.90
47658;DHT22;33958;48.404;10.598;2022-07-29T01:38:31;17.20;99.90
47658;DHT22;33958;48.404;10.598;2022-07-29T01:41:05;17.20;99.90
47658;DHT22;33958;48.404;10.598;2022-07-29T01:46:31;17.20;99.90
47658;DHT22;33958;48.404;10.598;2022-07-29T01:49:16;17.20;99.90
47658;DHT22;33958;48.404;10.598;2022-07-29T01:51:49;17.20;99.90
47658;DHT22;33958;48.404;10.598;2022-07-29T01:54:25;17.20;99.90
47658;DHT22;33958;48.404;10.598;2022-07-29T01:56:55;17.10;99.90
47658;DHT22;33958;48.404;10.598;2022-07-29T01:59:24;17.00;99.90
47658;DHT22;33958;48.404;10.598;2022-07-29T02:01:54;17.20;99.90
47658;DHT22;33958;48.404;10.598;2022-07-29T02:04:22;17.20;99.90
47658;DHT22;33958;48.404;10.598;2022-07-29T02:07:00;17.10;99.90
47658;DHT22;33958;48.404;10.598;2022-07-29T02:09:30;17.10;99.90
47658;DHT22;33958;48.404;10.598;2022-07-29T02:11:59;17.10;99.90
47658;DHT22;33958;48.404;10.598;2022-07-29T02:14:30;17.10;99.90
47658;DHT22;33958;48.404;10.598;2022-07-29T02:17:00;17.10;99.90
47658;DHT22;33958;48.404;10.598;2022-07-29T02:19:29;17.00;99.90
47658;DHT22;33958;48.404;10.598;2022-07-29T02:21:58;16.90;99.90
47658;DHT22;33958;48.404;10.598;2022-07-29T02:24:26;16.90;99.90
47658;DHT22;33958;48.404;10.598;2022-07-29T02:26:56;17.00;99.90
47658;DHT22;33958;48.404;10.598;2022-07-29T02:29:26;17.00;99.90
47658;DHT22;33958;48.404;10.598;2022-07-29T02:31:55;17.00;99.90
47658;DHT22;33958;48.404;10.598;2022-07-29T02:34:23;17.00;99.90
47658;DHT22;33958;48.404;10.598;2022-07-29T02:36:51;16.90;99.90
47658;DHT22;33958;48.404;10.598;2022-07-29T02:39:19;17.00;99.90
47658;DHT22;33958;48.404;10.598;2022-07-29T02:41:48;16.80;99.90
47658;DHT22;33958;48.404;10.598;2022-07-29T02:44:20;16.90;99.90
47658;DHT22;33958;48.404;10.598;2022-07-29T02:49:48;17.00;99.90
47658;DHT22;33958;48.404;10.598;2022-07-29T02:52:24;17.00;99.90
47658;DHT22;33958;48.404;10.598;2022-07-29T02:55:00;16.90;99.90
47658;DHT22;33958;48.404;10.598;2022-07-29T03:00:31;16.90;99.90
47658;DHT22;33958;48.404;10.598;2022-07-29T03:03:04;16.80;99.90
47658;DHT22;33958;48.404;10.598;2022-07-29T03:05:32;16.90;99.90
47658;DHT22;33958;48.404;10.598;2022-07-29T03:08:04;17.00;99.90
47658;DHT22;33958;48.404;10.598;2022-07-29T03:10:33;17.00;99.90
47658;DHT22;33958;48.404;10.598;2022-07-29T03:13:01;16.90;99.90
47658;DHT22;33958;48.404;10.598;2022-07-29T03:15:28;16.90;99.90
47658;DHT22;33958;48.404;10.598;2022-07-29T03:17:55;16.90;99.90
47658;DHT22;33958;48.404;10.598;2022-07-29T03:20:23;16.80;99.90
47658;DHT22;33958;48.404;10.598;2022-07-29T03:22:51;16.90;99.90
47658;DHT22;33958;48.404;10.598;2022-07-29T03:25:19;16.90;99.90
47658;DHT22;33958;48.404;10.598;2022-07-29T03:27:47;16.80;99.90
47658;DHT22;33958;48.404;10.598;2022-07-29T03:30:15;16.70;99.90
47658;DHT22;33958;48.404;10.598;2022-07-29T03:32:47;16.70;99.90
47658;DHT22;33958;48.404;10.598;2022-07-29T03:35:20;16.70;99.90
47658;DHT22;33958;48.404;10.598;2022-07-29T03:37:47;16.70;99.90
47658;DHT22;33958;48.404;10.598;2022-07-29T03:40:30;16.60;99.90
47658;DHT22;33958;48.404;10.598;2022-07-29T03:42:59;16.70;99.90
47658;DHT22;33958;48.404;10.598;2022-07-29T03:45:28;16.60;99.90
47658;DHT22;33958;48.404;10.598;2022-07-29T03:48:05;16.60;99.90
47658;DHT22;33958;48.404;10.598;2022-07-29T03:50:34;16.60;99.90
47658;DHT22;33958;48.404;10.598;2022-07-29T03:53:02;16.50;99.90
47658;DHT22;33958;48.404;10.598;2022-07-29T03:55:33;16.30;99.90
47658;DHT22;33958;48.404;10.598;2022-07-29T03:58:03;16.30;99.90
47658;DHT22;33958;48.404;10.598;2022-07-29T04:00:31;16.20;99.90
47658;DHT22;33958;48.404;10.598;2022-07-29T04:03:00;16.30;99.90
47658;DHT22;33958;48.404;10.598;2022-07-29T04:05:28;16.40;99.90
47658;DHT22;33958;48.404;10.598;2022-07-29T04:07:54;16.30;99.90
47658;DHT22;33958;48.404;10.598;2022-07-29T04:10:23;16.30;99.90
47658;DHT22;33958;48.404;10.598;2022-07-29T04:12:58;16.30;99.90
47658;DHT22;33958;48.404;10.598;2022-07-29T04:15:26;16.20;99.90
47658;DHT22;33958;48.404;10.598;2022-07-29T04:17:58;16.20;99.90
47658;DHT22;33958;48.404;10.598;2022-07-29T04:20:25;16.30;99.90
47658;DHT22;33958;48.404;10.598;2022-07-29T04:22:52;16.30;99.90
47658;DHT22;33958;48.404;10.598;2022-07-29T04:25:20;16.30;99.90
47658;DHT22;33958;48.404;10.598;2022-07-29T04:27:47;16.30;99.90
47658;DHT22;33958;48.404;10.598;2022-07-29T04:30:30;16.30;99.90
47658;DHT22;33958;48.404;10.598;2022-07-29T04:32:58;16.40;99.90
47658;DHT22;33958;48.404;10.598;2022-07-29T04:35:25;16.60;99.90
47658;DHT22;33958;48.404;10.598;2022-07-29T04:37:52;16.70;99.90
47658;DHT22;33958;48.404;10.598;2022-07-29T04:40:20;16.50;99.90
47658;DHT22;33958;48.404;10.598;2022-07-29T04:42:47;16.70;99.90
47658;DHT22;33958;48.404;10.598;2022-07-29T04:45:15;16.70;99.90
47658;DHT22;33958;48.404;10.598;2022-07-29T04:47:47;16.50;99.90
47658;DHT22;33958;48.404;10.598;2022-07-29T04:50:14;16.70;99.90
47658;DHT22;33958;48.404;10.598;2022-07-29T04:52:41;16.70;99.90
47658;DHT22;33958;48.404;10.598;2022-07-29T04:55:09;16.90;99.90
47658;DHT22;33958;48.404;10.598;2022-07-29T04:57:36;16.80;99.90
47658;DHT22;33958;48.404;10.598;2022-07-29T05:00:05;16.90;99.90
47658;DHT22;33958;48.404;10.598;2022-07-29T05:02:32;16.90;99.90
47658;DHT22;33958;48.404;10.598;2022-07-29T05:04:59;17.10;99.90
47658;DHT22;33958;48.404;10.598;2022-07-29T05:07:26;17.20;99.90
47658;DHT22;33958;48.404;10.598;2022-07-29T05:09:53;17.30;99.90
47658;DHT22;33958;48.404;10.598;2022-07-29T05:12:20;17.30;99.90
47658;DHT22;33958;48.404;10.598;2022-07-29T05:14:47;17.30;99.90
47658;DHT22;33958;48.404;10.598;2022-07-29T05:17:13;17.30;99.90
47658;DHT22;33958;48.404;10.598;2022-07-29T05:19:41;17.10;99.90
47658;DHT22;33958;48.404;10.598;2022-07-29T05:22:07;17.20;99.90
47658;DHT22;33958;48.404;10.598;2022-07-29T05:24:34;17.40;99.90
47658;DHT22;33958;48.404;10.598;2022-07-29T05:27:01;17.50;99.90
47658;DHT22;33958;48.404;10.598;2022-07-29T05:29:28;17.60;99.90
47658;DHT22;33958;48.404;10.598;2022-07-29T05:32:12;17.30;99.90
47658;DHT22;33958;48.404;10.598;2022-07-29T05:34:39;17.60;99.90
47658;DHT22;33958;48.404;10.598;2022-07-29T05:37:18;17.80;99.90
47658;DHT22;33958;48.404;10.598;2022-07-29T05:39:45;17.90;99.90
47658;DHT22;33958;48.404;10.598;2022-07-29T05:42:14;17.90;99.90
47658;DHT22;33958;48.404;10.598;2022-07-29T05:44:42;17.80;99.90
47658;DHT22;33958;48.404;10.598;2022-07-29T05:47:08;17.80;99.90
47658;DHT22;33958;48.404;10.598;2022-07-29T05:49:35;18.20;99.90
47658;DHT22;33958;48.404;10.598;2022-07-29T05:52:03;18.00;99.90
47658;DHT22;33958;48.404;10.598;2022-07-29T05:54:30;17.90;99.90
47658;DHT22;33958;48.404;10.598;2022-07-29T05:56:57;18.20;99.90
47658;DHT22;33958;48.404;10.598;2022-07-29T05:59:24;18.20;99.90
47658;DHT22;33958;48.404;10.598;2022-07-29T06:01:56;18.50;99.90
47658;DHT22;33958;48.404;10.598;2022-07-29T06:04:24;18.30;99.90
47658;DHT22;33958;48.404;10.598;2022-07-29T06:06:51;18.20;99.90
47658;DHT22;33958;48.404;10.598;2022-07-29T06:09:20;18.30;99.90
47658;DHT22;33958;48.404;10.598;2022-07-29T06:11:47;18.30;99.90
47658;DHT22;33958;48.404;10.598;2022-07-29T06:14:14;18.30;99.90
47658;DHT22;33958;48.404;10.598;2022-07-29T06:16:42;18.60;99.90
47658;DHT22;33958;48.404;10.598;2022-07-29T06:19:09;18.90;99.90
47658;DHT22;33958;48.404;10.598;2022-07-29T06:21:36;18.80;99.90
47658;DHT22;33958;48.404;10.598;2022-07-29T06:24:08;18.50;99.90
47658;DHT22;33958;48.404;10.598;2022-07-29T06:26:35;18.50;99.90
47658;DHT22;33958;48.404;10.598;2022-07-29T06:29:06;19.00;99.90
47658;DHT22;33958;48.404;10.598;2022-07-29T06:31:33;19.20;99.90
47658;DHT22;33958;48.404;10.598;2022-07-29T06:34:00;19.70;99.90
47658;DHT22;33958;48.404;10.598;2022-07-29T06:36:29;19.20;99.90
47658;DHT22;33958;48.404;10.598;2022-07-29T06:38:55;19.80;99.90
47658;DHT22;33958;48.404;10.598;2022-07-29T06:41:23;19.70;99.90
47658;DHT22;33958;48.404;10.598;2022-07-29T06:43:50;19.70;99.90
47658;DHT22;33958;48.404;10.598;2022-07-29T06:46:22;19.50;99.90
47658;DHT22;33958;48.404;10.598;2022-07-29T06:48:50;19.40;99.90
47658;DHT22;33958;48.404;10.598;2022-07-29T06:51:19;19.80;99.90
47658;DHT22;33958;48.404;10.598;2022-07-29T06:53:52;20.10;99.90
47658;DHT22;33958;48.404;10.598;2022-07-29T06:56:33;20.00;99.90
47658;DHT22;33958;48.404;10.598;2022-07-29T06:59:06;19.60;99.90
47658;DHT22;33958;48.404;10.598;2022-07-29T07:01:34;20.00;99.90
47658;DHT22;33958;48.404;10.598;2022-07-29T07:04:02;20.10;99.90
47658;DHT22;33958;48.404;10.598;2022-07-29T07:06:29;19.90;99.90
47658;DHT22;33958;48.404;10.598;2022-07-29T07:08:56;20.30;99.90
47658;DHT22;33958;48.404;10.598;2022-07-29T07:11:23;20.90;99.90
47658;DHT22;33958;48.404;10.598;2022-07-29T07:13:50;20.50;99.90
47658;DHT22;33958;48.404;10.598;2022-07-29T07:16:17;20.60;99.90
47658;DHT22;33958;48.404;10.598;2022-07-29T07:18:44;21.20;99.90
47658;DHT22;33958;48.404;10.598;2022-07-29T07:21:12;20.60;99.90
47658;DHT22;33958;48.404;10.598;2022-07-29T07:23:45;20.80;99.90
47658;DHT22;33958;48.404;10.598;2022-07-29T07:26:13;20.80;99.90
47658;DHT22;33958;48.404;10.598;2022-07-29T07:28:40;20.70;99.90
47658;DHT22;33958;48.404;10.598;2022-07-29T07:31:07;20.60;99.90
47658;DHT22;33958;48.404;10.598;2022-07-29T07:33:33;20.40;99.90
47658;DHT22;33958;48.404;10.598;2022-07-29T07:36:01;21.40;99.90
47658;DHT22;33958;48.404;10.598;2022-07-29T07:38:28;21.10;99.90
47658;DHT22;33958;48.404;10.598;2022-07-29T07:40:55;21.40;99.90
47658;DHT22;33958;48.404;10.598;2022-07-29T07:43:21;21.50;99.90
47658;DHT22;33958;48.404;10.598;2022-07-29T07:45:49;21.30;99.90
47658;DHT22;33958;48.404;10.598;2022-07-29T07:48:16;21.50;99.90
47658;DHT22;33958;48.404;10.598;2022-07-29T07:50:43;21.40;99.90
47658;DHT22;33958;48.404;10.598;2022-07-29T07:53:10;21.40;99.90
47658;DHT22;33958;48.404;10.598;2022-07-29T07:55:42;21.60;99.90
47658;DHT22;33958;48.404;10.598;2022-07-29T07:58:29;21.60;99.90
47658;DHT22;33958;48.404;10.598;2022-07-29T08:00:56;20.80;99.90
47658;DHT22;33958;48.404;10.598;2022-07-29T08:03:23;21.00;99.90
47658;DHT22;33958;48.404;10.598;2022-07-29T08:05:50;21.10;99.90
47658;DHT22;33958;48.404;10.598;2022-07-29T08:08:18;21.30;99.90
47658;DHT22;33958;48.404;10.598;2022-07-29T08:10:45;21.80;99.90
47658;DHT22;33958;48.404;10.598;2022-07-29T08:13:19;21.60;99.90
47658;DHT22;33958;48.404;10.598;2022-07-29T08:15:47;21.10;99.90
47658;DHT22;33958;48.404;10.598;2022-07-29T08:18:14;21.80;99.90
47658;DHT22;33958;48.404;10.598;2022-07-29T08:20:40;21.80;99.90
47658;DHT22;33958;48.404;10.598;2022-07-29T08:23:08;22.00;99.90
47658;DHT22;33958;48.404;10.598;2022-07-29T08:25:37;21.60;99.90
47658;DHT22;33958;48.404;10.598;2022-07-29T08:28:08;21.10;99.90
47658;DHT22;33958;48.404;10.598;2022-07-29T08:30:35;21.20;99.90
47658;DHT22;33958;48.404;10.598;2022-07-29T08:33:02;21.30;99.90
47658;DHT22;33958;48.404;10.598;2022-07-29T08:35:29;21.80;99.90
47658;DHT22;33958;48.404;10.598;2022-07-29T08:38:01;21.90;99.90
47658;DHT22;33958;48.404;10.598;2022-07-29T08:40:30;21.70;99.90
47658;DHT22;33958;48.404;10.598;2022-07-29T08:43:08;22.10;99.90
47658;DHT22;33958;48.404;10.598;2022-07-29T08:45:55;22.50;99.90
47658;DHT22;33958;48.404;10.598;2022-07-29T08:48:23;22.50;99.90
47658;DHT22;33958;48.404;10.598;2022-07-29T08:50:57;22.30;99.90
47658;DHT22;33958;48.404;10.598;2022-07-29T08:53:26;22.40;99.90
47658;DHT22;33958;48.404;10.598;2022-07-29T08:55:54;22.40;99.90
47658;DHT22;33958;48.404;10.598;2022-07-29T08:58:21;22.70;99.90
47658;DHT22;33958;48.404;10.598;2022-07-29T09:00:55;22.70;99.90
47658;DHT22;33958;48.404;10.598;2022-07-29T09:03:29;22.70;99.90
47658;DHT22;33958;48.404;10.598;2022-07-29T09:05:58;23.20;99.90
47658;DHT22;33958;48.404;10.598;2022-07-29T09:08:25;23.70;99.90
47658;DHT22;33958;48.404;10.598;2022-07-29T09:10:52;23.30;99.90
47658;DHT22;33958;48.404;10.598;2022-07-29T09:13:19;23.50;99.90
47658;DHT22;33958;48.404;10.598;2022-07-29T09:15:46;24.00;99.90
47658;DHT22;33958;48.404;10.598;2022-07-29T09:18:40;23.80;99.90
47658;DHT22;33958;48.404;10.598;2022-07-29T09:21:11;24.40;99.90
47658;DHT22;33958;48.404;10.598;2022-07-29T09:24:08;24.40;98.20
47658;DHT22;33958;48.404;10.598;2022-07-29T09:26:39;24.30;97.70
47658;DHT22;33958;48.404;10.598;2022-07-29T09:29:14;24.60;99.00
47658;DHT22;33958;48.404;10.598;2022-07-29T09:31:43;24.90;96.30
47658;DHT22;33958;48.404;10.598;2022-07-29T09:34:13;24.70;97.70
47658;DHT22;33958;48.404;10.598;2022-07-29T09:36:45;24.70;99.90
47658;DHT22;33958;48.404;10.598;2022-07-29T09:39:13;24.30;97.90
47658;DHT22;33958;48.404;10.598;2022-07-29T09:41:48;24.50;98.60
47658;DHT22;33958;48.404;10.598;2022-07-29T09:44:16;24.90;97.20
47658;DHT22;33958;48.404;10.598;2022-07-29T09:46:55;25.20;97.30
47658;DHT22;33958;48.404;10.598;2022-07-29T09:49:25;25.80;96.30
47658;DHT22;33958;48.404;10.598;2022-07-29T09:52:09;25.80;97.20
47658;DHT22;33958;48.404;10.598;2022-07-29T09:54:36;25.80;96.10
47658;DHT22;33958;48.404;10.598;2022-07-29T09:57:05;26.40;94.60
47658;DHT22;33958;48.404;10.598;2022-07-29T09:59:32;26.30;94.50
47658;DHT22;33958;48.404;10.598;2022-07-29T10:02:00;26.40;93.50
47658;DHT22;33958;48.404;10.598;2022-07-29T10:04:42;27.20;92.80
47658;DHT22;33958;48.404;10.598;2022-07-29T10:07:09;25.90;94.20
47658;DHT22;33958;48.404;10.598;2022-07-29T10:09:36;26.10;94.70
47658;DHT22;33958;48.404;10.598;2022-07-29T10:12:04;26.70;92.30
47658;DHT22;33958;48.404;10.598;2022-07-29T10:14:32;26.60;92.50
47658;DHT22;33958;48.404;10.598;2022-07-29T10:17:04;26.60;92.50
47658;DHT22;33958;48.404;10.598;2022-07-29T10:19:32;26.60;91.90
47658;DHT22;33958;48.404;10.598;2022-07-29T10:22:02;26.80;92.50
47658;DHT22;33958;48.404;10.598;2022-07-29T10:24:31;27.10;91.10
47658;DHT22;33958;48.404;10.598;2022-07-29T10:27:00;27.60;91.90
47658;DHT22;33958;48.404;10.598;2022-07-29T10:29:27;27.60;92.30
47658;DHT22;33958;48.404;10.598;2022-07-29T10:32:29;26.10;91.30
47658;DHT22;33958;48.404;10.598;2022-07-29T10:35:24;26.30;91.10
47658;DHT22;33958;48.404;10.598;2022-07-29T10:43:42;27.20;90.10
47658;DHT22;33958;48.404;10.598;2022-07-29T10:46:13;27.10;87.90
47658;DHT22;33958;48.404;10.598;2022-07-29T10:49:06;27.50;87.60
47658;DHT22;33958;48.404;10.598;2022-07-29T10:52:08;27.30;85.40
47658;DHT22;33958;48.404;10.598;2022-07-29T10:59:40;26.80;84.80
47658;DHT22;33958;48.404;10.598;2022-07-29T11:05:17;26.50;83.60
47658;DHT22;33958;48.404;10.598;2022-07-29T11:10:47;26.10;86.20
47658;DHT22;33958;48.404;10.598;2022-07-29T11:16:09;26.50;85.20
47658;DHT22;33958;48.404;10.598;2022-07-29T11:21:44;27.30;85.50
47658;DHT22;33958;48.404;10.598;2022-07-29T11:24:26;27.90;84.30
47658;DHT22;33958;48.404;10.598;2022-07-29T11:27:32;28.20;81.00
47658;DHT22;33958;48.404;10.598;2022-07-29T11:30:07;28.70;79.00
47658;DHT22;33958;48.404;10.598;2022-07-29T11:32:39;28.40;79.10
47658;DHT22;33958;48.404;10.598;2022-07-29T11:41:22;27.30;81.90
47658;DHT22;33958;48.404;10.598;2022-07-29T11:43:55;26.90;82.20
47658;DHT22;33958;48.404;10.598;2022-07-29T11:49:07;27.00;84.60
47658;DHT22;33958;48.404;10.598;2022-07-29T11:51:41;26.70;84.20
47658;DHT22;33958;48.404;10.598;2022-07-29T11:54:17;26.10;80.50
47658;DHT22;33958;48.404;10.598;2022-07-29T11:56:53;26.40;79.60
47658;DHT22;33958;48.404;10.598;2022-07-29T11:59:21;26.40;76.80
47658;DHT22;33958;48.404;10.598;2022-07-29T12:01:59;26.30;78.00
47658;DHT22;33958;48.404;10.598;2022-07-29T12:04:53;26.50;77.30
47658;DHT22;33958;48.404;10.598;2022-07-29T12:07:31;26.60;78.90
47658;DHT22;33958;48.404;10.598;2022-07-29T12:10:02;26.70;79.80
47658;DHT22;33958;48.404;10.598;2022-07-29T12:12:32;26.80;78.80
47658;DHT22;33958;48.404;10.598;2022-07-29T12:15:14;26.80;78.60
47658;DHT22;33958;48.404;10.598;2022-07-29T12:17:41;27.10;78.00
47658;DHT22;33958;48.404;10.598;2022-07-29T12:20:08;27.40;77.60
47658;DHT22;33958;48.404;10.598;2022-07-29T12:22:40;27.80;77.40
47658;DHT22;33958;48.404;10.598;2022-07-29T12:25:11;28.60;75.90
47658;DHT22;33958;48.404;10.598;2022-07-29T12:28:07;28.70;76.20
47658;DHT22;33958;48.404;10.598;2022-07-29T12:30:42;27.30;75.80
47658;DHT22;33958;48.404;10.598;2022-07-29T12:33:16;27.20;76.50
47658;DHT22;33958;48.404;10.598;2022-07-29T12:35:47;27.10;78.10
47658;DHT22;33958;48.404;10.598;2022-07-29T12:38:33;27.00;77.30
47658;DHT22;33958;48.404;10.598;2022-07-29T12:41:01;26.60;78.60
47658;DHT22;33958;48.404;10.598;2022-07-29T12:43:30;26.30;78.20
47658;DHT22;33958;48.404;10.598;2022-07-29T12:45:57;26.00;77.90
47658;DHT22;33958;48.404;10.598;2022-07-29T12:48:38;25.90;77.40
47658;DHT22;33958;48.404;10.598;2022-07-29T12:51:07;25.90;77.40
47658;DHT22;33958;48.404;10.598;2022-07-29T12:53:36;26.00;77.00
47658;DHT22;33958;48.404;10.598;2022-07-29T12:56:04;25.80;77.20
47658;DHT22;33958;48.404;10.598;2022-07-29T12:58:52;25.70;78.80
47658;DHT22;33958;48.404;10.598;2022-07-29T13:01:20;25.60;79.40
47658;DHT22;33958;48.404;10.598;2022-07-29T13:03:55;25.70;79.90
47658;DHT22;33958;48.404;10.598;2022-07-29T13:09:03;25.70;77.00
47658;DHT22;33958;48.404;10.598;2022-07-29T13:11:51;25.70;77.00
47658;DHT22;33958;48.404;10.598;2022-07-29T13:14:41;26.10;77.60
47658;DHT22;33958;48.404;10.598;2022-07-29T13:17:10;25.90;76.10
47658;DHT22;33958;48.404;10.598;2022-07-29T13:19:41;25.80;74.50
47658;DHT22;33958;48.404;10.598;2022-07-29T13:22:22;25.80;74.50
47658;DHT22;33958;48.404;10.598;2022-07-29T13:25:00;25.90;73.70
47658;DHT22;33958;48.404;10.598;2022-07-29T13:27:32;25.70;73.00
47658;DHT22;33958;48.404;10.598;2022-07-29T13:30:00;25.60;73.20
47658;DHT22;33958;48.404;10.598;2022-07-29T13:32:30;26.10;74.10
47658;DHT22;33958;48.404;10.598;2022-07-29T13:34:58;26.60;72.50
47658;DHT22;33958;48.404;10.598;2022-07-29T13:37:27;26.40;71.80
47658;DHT22;33958;48.404;10.598;2022-07-29T13:39:57;27.00;73.00
47658;DHT22;33958;48.404;10.598;2022-07-29T13:42:24;27.10;70.10
47658;DHT22;33958;48.404;10.598;2022-07-29T13:44:51;27.10;69.60
47658;DHT22;33958;48.404;10.598;2022-07-29T13:47:19;27.00;70.50
47658;DHT22;33958;48.404;10.598;2022-07-29T13:49:47;27.90;70.40
47658;DHT22;33958;48.404;10.598;2022-07-29T13:52:14;27.20;71.60
47658;DHT22;33958;48.404;10.598;2022-07-29T13:54:42;26.60;71.90
47658;DHT22;33958;48.404;10.598;2022-07-29T13:57:12;27.20;71.90
47658;DHT22;33958;48.404;10.598;2022-07-29T13:59:42;28.10;71.10
47658;DHT22;33958;48.404;10.598;2022-07-29T14:02:11;28.20;70.90
47658;DHT22;33958;48.404;10.598;2022-07-29T14:04:42;28.50;69.80
47658;DHT22;33958;48.404;10.598;2022-07-29T14:07:09;28.30;70.70
47658;DHT22;33958;48.404;10.598;2022-07-29T14:09:41;28.90;71.00
47658;DHT22;33958;48.404;10.598;2022-07-29T14:12:08;29.40;70.00
47658;DHT22;33958;48.404;10.598;2022-07-29T14:14:35;29.20;71.20
47658;DHT22;33958;48.404;10.598;2022-07-29T14:17:04;29.00;70.80
47658;DHT22;33958;48.404;10.598;2022-07-29T14:19:34;28.70;73.50
47658;DHT22;33958;48.404;10.598;2022-07-29T14:22:06;28.90;72.80
47658;DHT22;33958;48.404;10.598;2022-07-29T14:24:35;28.90;72.50
47658;DHT22;33958;48.404;10.598;2022-07-29T14:27:04;28.50;73.20
47658;DHT22;33958;48.404;10.598;2022-07-29T14:29:31;28.10;71.50
47658;DHT22;33958;48.404;10.598;2022-07-29T14:32:04;27.70;71.60
47658;DHT22;33958;48.404;10.598;2022-07-29T14:34:32;28.20;73.40
47658;DHT22;33958;48.404;10.598;2022-07-29T14:37:00;28.10;73.00
47658;DHT22;33958;48.404;10.598;2022-07-29T14:39:27;27.60;73.30
47658;DHT22;33958;48.404;10.598;2022-07-29T14:41:57;27.70;73.60
47658;DHT22;33958;48.404;10.598;2022-07-29T14:44:25;27.60;74.00
47658;DHT22;33958;48.404;10.598;2022-07-29T14:46:58;27.00;73.80
47658;DHT22;33958;48.404;10.598;2022-07-29T14:49:26;26.60;74.70
47658;DHT22;33958;48.404;10.598;2022-07-29T14:51:53;26.00;76.30
47658;DHT22;33958;48.404;10.598;2022-07-29T14:54:21;24.90;77.20
47658;DHT22;33958;48.404;10.598;2022-07-29T14:56:48;24.50;77.80
47658;DHT22;33958;48.404;10.598;2022-07-29T14:59:17;24.40;77.10
47658;DHT22;33958;48.404;10.598;2022-07-29T15:01:44;24.60;77.60
47658;DHT22;33958;48.404;10.598;2022-07-29T15:04:11;24.70;77.20
47658;DHT22;33958;48.404;10.598;2022-07-29T15:06:38;24.70;77.20
47658;DHT22;33958;48.404;10.598;2022-07-29T15:09:05;24.50;77.80
47658;DHT22;33958;48.404;10.598;2022-07-29T15:11:32;24.70;78.70
47658;DHT22;33958;48.404;10.598;2022-07-29T15:14:04;24.50;78.90
47658;DHT22;33958;48.404;10.598;2022-07-29T15:16:31;24.90;78.00
47658;DHT22;33958;48.404;10.598;2022-07-29T15:18:58;24.80;78.70
47658;DHT22;33958;48.404;10.598;2022-07-29T15:21:26;24.80;78.30
47658;DHT22;33958;48.404;10.598;2022-07-29T15:23:54;24.70;78.00
47658;DHT22;33958;48.404;10.598;2022-07-29T15:26:21;24.40;77.60
47658;DHT22;33958;48.404;10.598;2022-07-29T15:28:48;24.30;77.80
47658;DHT22;33958;48.404;10.598;2022-07-29T15:31:14;24.10;77.90
47658;DHT22;33958;48.404;10.598;2022-07-29T15:33:42;24.20;77.80
47658;DHT22;33958;48.404;10.598;2022-07-29T15:36:09;24.10;77.90
47658;DHT22;33958;48.404;10.598;2022-07-29T15:38:59;24.00;78.50
47658;DHT22;33958;48.404;10.598;2022-07-29T15:41:26;23.90;79.10
47658;DHT22;33958;48.404;10.598;2022-07-29T15:43:53;23.90;78.90
47658;DHT22;33958;48.404;10.598;2022-07-29T15:46:20;23.50;78.60
47658;DHT22;33958;48.404;10.598;2022-07-29T15:49:06;23.40;79.40
47658;DHT22;33958;48.404;10.598;2022-07-29T15:51:33;23.20;79.90
47658;DHT22;33958;48.404;10.598;2022-07-29T15:54:02;23.00;80.20
47658;DHT22;33958;48.404;10.598;2022-07-29T15:56:29;22.70;80.90
47658;DHT22;33958;48.404;10.598;2022-07-29T15:58:57;22.60;82.50
47658;DHT22;33958;48.404;10.598;2022-07-29T16:01:24;22.50;82.00
47658;DHT22;33958;48.404;10.598;2022-07-29T16:03:51;22.40;81.20
47658;DHT22;33958;48.404;10.598;2022-07-29T16:06:19;22.30;84.60
47658;DHT22;33958;48.404;10.598;2022-07-29T16:08:46;21.90;86.00
47658;DHT22;33958;48.404;10.598;2022-07-29T16:11:13;21.50;90.40
47658;DHT22;33958;48.404;10.598;2022-07-29T16:13:40;20.70;95.60
47658;DHT22;33958;48.404;10.598;2022-07-29T16:16:06;19.60;99.90
47658;DHT22;33958;48.404;10.598;2022-07-29T16:18:34;18.50;99.90
47658;DHT22;33958;48.404;10.598;2022-07-29T16:21:01;18.10;99.90
47658;DHT22;33958;48.404;10.598;2022-07-29T16:23:28;17.70;99.90
47658;DHT22;33958;48.404;10.598;2022-07-29T16:25:55;17.70;99.90
47658;DHT22;33958;48.404;10.598;2022-07-29T16:28:28;17.40;99.90